Terminal Aerodrome Forecast
Issued by NWS

Home | Current Version | Previous Version | Text Only | Print | Product List | Glossary On
Versions: 1 2 3 4 5 6 7 8 9 10 11 12 13 14 15 16 17 18 19 20 21 22 23 24 25 26 27 28 29 30 31 32 33 34 35 36 37
000
FTUS43 KDDC 271720
TAFHYS
TAF
KHYS 271720Z 2718/2818 VRB06KT P6SM BKN120
     FM272000 16011G17KT P6SM BKN090
      TEMPO 2723/2802 5SM -TSRA BKN050CB
     FM280200 14011KT P6SM BKN070=

USA.gov is the U.S. government's official web portal to all federal, state and local government web resources and services.